sensor_id;sensor_type;location;lat;lon;timestamp;temperature;humidity
30628;DHT22;17394;50.890;4.724;2022-08-19T06:41:45;18.00;99.90
30628;DHT22;17394;50.890;4.724;2022-08-19T06:44:13;18.10;99.90
30628;DHT22;17394;50.890;4.724;2022-08-19T06:46:41;18.10;99.90
30628;DHT22;17394;50.890;4.724;2022-08-19T06:49:07;18.20;99.90
30628;DHT22;17394;50.890;4.724;2022-08-19T06:51:36;18.30;99.90
30628;DHT22;17394;50.890;4.724;2022-08-19T06:54:03;18.50;99.90
30628;DHT22;17394;50.890;4.724;2022-08-19T06:56:31;18.60;99.90
30628;DHT22;17394;50.890;4.724;2022-08-19T06:59:07;18.70;99.90
30628;DHT22;17394;50.890;4.724;2022-08-19T07:01:47;18.80;99.90
30628;DHT22;17394;50.890;4.724;2022-08-19T07:04:19;18.90;99.90
30628;DHT22;17394;50.890;4.724;2022-08-19T07:06:47;19.00;99.90
30628;DHT22;17394;50.890;4.724;2022-08-19T07:09:17;19.00;99.90
30628;DHT22;17394;50.890;4.724;2022-08-19T07:11:48;19.00;99.90
30628;DHT22;17394;50.890;4.724;2022-08-19T07:14:19;19.00;99.90
30628;DHT22;17394;50.890;4.724;2022-08-19T07:16:49;19.00;99.90
30628;DHT22;17394;50.890;4.724;2022-08-19T07:19:18;19.00;99.90
30628;DHT22;17394;50.890;4.724;2022-08-19T07:21:48;19.10;99.90
30628;DHT22;17394;50.890;4.724;2022-08-19T07:24:15;19.20;99.90
30628;DHT22;17394;50.890;4.724;2022-08-19T07:26:43;19.30;99.90
30628;DHT22;17394;50.890;4.724;2022-08-19T07:29:11;19.30;99.90
30628;DHT22;17394;50.890;4.724;2022-08-19T07:31:39;19.40;99.90
30628;DHT22;17394;50.890;4.724;2022-08-19T07:34:09;19.50;99.90
30628;DHT22;17394;50.890;4.724;2022-08-19T07:36:48;19.60;99.90
30628;DHT22;17394;50.890;4.724;2022-08-19T07:39:28;19.80;99.90
30628;DHT22;17394;50.890;4.724;2022-08-19T07:41:58;20.10;99.90
30628;DHT22;17394;50.890;4.724;2022-08-19T07:44:24;20.30;99.90
30628;DHT22;17394;50.890;4.724;2022-08-19T07:46:55;20.70;99.90
30628;DHT22;17394;50.890;4.724;2022-08-19T07:49:23;21.00;99.90
30628;DHT22;17394;50.890;4.724;2022-08-19T07:52:04;21.10;99.90
30628;DHT22;17394;50.890;4.724;2022-08-19T07:54:36;21.20;99.90
30628;DHT22;17394;50.890;4.724;2022-08-19T07:57:04;21.30;99.90
30628;DHT22;17394;50.890;4.724;2022-08-19T07:59:31;21.40;99.90
30628;DHT22;17394;50.890;4.724;2022-08-19T08:01:58;21.50;99.90
30628;DHT22;17394;50.890;4.724;2022-08-19T08:04:27;21.60;99.90
30628;DHT22;17394;50.890;4.724;2022-08-19T08:07:11;21.70;99.90
30628;DHT22;17394;50.890;4.724;2022-08-19T08:09:56;21.70;99.90
30628;DHT22;17394;50.890;4.724;2022-08-19T08:12:28;21.60;99.90
30628;DHT22;17394;50.890;4.724;2022-08-19T08:15:10;21.60;99.90
30628;DHT22;17394;50.890;4.724;2022-08-19T08:17:37;21.60;99.90
30628;DHT22;17394;50.890;4.724;2022-08-19T08:20:06;21.80;99.90
30628;DHT22;17394;50.890;4.724;2022-08-19T08:22:33;21.90;99.90
30628;DHT22;17394;50.890;4.724;2022-08-19T08:25:22;22.00;99.90
30628;DHT22;17394;50.890;4.724;2022-08-19T08:27:50;22.20;99.90
30628;DHT22;17394;50.890;4.724;2022-08-19T08:30:23;22.10;99.90
30628;DHT22;17394;50.890;4.724;2022-08-19T08:32:51;22.10;99.90
30628;DHT22;17394;50.890;4.724;2022-08-19T08:35:22;22.10;99.90
30628;DHT22;17394;50.890;4.724;2022-08-19T08:37:51;22.10;99.90
30628;DHT22;17394;50.890;4.724;2022-08-19T08:46:06;22.30;99.90
30628;DHT22;17394;50.890;4.724;2022-08-19T08:52:13;22.80;99.90
30628;DHT22;17394;50.890;4.724;2022-08-19T08:54:46;23.10;99.90
30628;DHT22;17394;50.890;4.724;2022-08-19T08:57:28;23.20;99.90
30628;DHT22;17394;50.890;4.724;2022-08-19T09:00:02;23.20;99.90
30628;DHT22;17394;50.890;4.724;2022-08-19T09:02:31;23.20;99.90
30628;DHT22;17394;50.890;4.724;2022-08-19T09:04:57;23.10;99.90
30628;DHT22;17394;50.890;4.724;2022-08-19T09:08:05;23.10;99.90
30628;DHT22;17394;50.890;4.724;2022-08-19T09:10:49;23.10;99.90
30628;DHT22;17394;50.890;4.724;2022-08-19T09:14:17;23.20;99.90
30628;DHT22;17394;50.890;4.724;2022-08-19T09:16:44;23.50;99.90
30628;DHT22;17394;50.890;4.724;2022-08-19T09:19:10;23.40;99.90
30628;DHT22;17394;50.890;4.724;2022-08-19T09:21:37;23.30;99.90
30628;DHT22;17394;50.890;4.724;2022-08-19T09:24:05;23.10;99.90
30628;DHT22;17394;50.890;4.724;2022-08-19T09:26:33;23.00;99.90
30628;DHT22;17394;50.890;4.724;2022-08-19T09:29:00;23.10;99.90
30628;DHT22;17394;50.890;4.724;2022-08-19T09:31:29;23.10;99.90
30628;DHT22;17394;50.890;4.724;2022-08-19T09:33:56;23.10;99.90
30628;DHT22;17394;50.890;4.724;2022-08-19T09:36:26;22.90;99.90
30628;DHT22;17394;50.890;4.724;2022-08-19T09:38:55;23.00;99.90
30628;DHT22;17394;50.890;4.724;2022-08-19T09:41:24;23.10;99.90
30628;DHT22;17394;50.890;4.724;2022-08-19T09:43:59;23.10;99.90
30628;DHT22;17394;50.890;4.724;2022-08-19T09:46:29;23.10;99.90
30628;DHT22;17394;50.890;4.724;2022-08-19T09:48:59;23.20;99.90
30628;DHT22;17394;50.890;4.724;2022-08-19T09:51:28;23.40;99.90
30628;DHT22;17394;50.890;4.724;2022-08-19T09:53:59;23.50;99.90
30628;DHT22;17394;50.890;4.724;2022-08-19T09:56:28;23.50;99.90
30628;DHT22;17394;50.890;4.724;2022-08-19T09:58:58;23.70;99.90
30628;DHT22;17394;50.890;4.724;2022-08-19T10:01:38;23.80;99.90
30628;DHT22;17394;50.890;4.724;2022-08-19T10:04:04;23.70;99.90
30628;DHT22;17394;50.890;4.724;2022-08-19T10:06:36;23.70;99.90
30628;DHT22;17394;50.890;4.724;2022-08-19T10:09:07;23.70;99.90
30628;DHT22;17394;50.890;4.724;2022-08-19T10:11:40;23.60;99.90
30628;DHT22;17394;50.890;4.724;2022-08-19T10:14:08;23.60;99.90
30628;DHT22;17394;50.890;4.724;2022-08-19T10:16:36;23.50;99.90
30628;DHT22;17394;50.890;4.724;2022-08-19T10:19:04;23.50;99.90
30628;DHT22;17394;50.890;4.724;2022-08-19T10:21:39;23.50;99.90
30628;DHT22;17394;50.890;4.724;2022-08-19T10:24:06;23.50;99.90
30628;DHT22;17394;50.890;4.724;2022-08-19T10:26:38;23.60;99.90
30628;DHT22;17394;50.890;4.724;2022-08-19T10:29:11;23.70;99.90
30628;DHT22;17394;50.890;4.724;2022-08-19T10:31:37;23.80;99.90
30628;DHT22;17394;50.890;4.724;2022-08-19T10:34:04;24.00;99.90
30628;DHT22;17394;50.890;4.724;2022-08-19T10:36:35;24.00;99.90
30628;DHT22;17394;50.890;4.724;2022-08-19T10:39:08;24.10;99.90
30628;DHT22;17394;50.890;4.724;2022-08-19T10:41:38;24.20;99.90
30628;DHT22;17394;50.890;4.724;2022-08-19T10:44:12;24.40;99.90
30628;DHT22;17394;50.890;4.724;2022-08-19T10:46:44;24.50;99.90
30628;DHT22;17394;50.890;4.724;2022-08-19T10:49:12;24.70;99.90
30628;DHT22;17394;50.890;4.724;2022-08-19T10:51:41;24.70;99.90
30628;DHT22;17394;50.890;4.724;2022-08-19T10:54:27;24.80;99.90
30628;DHT22;17394;50.890;4.724;2022-08-19T10:57:15;24.70;99.90
30628;DHT22;17394;50.890;4.724;2022-08-19T10:59:41;24.70;99.90
30628;DHT22;17394;50.890;4.724;2022-08-19T11:02:10;24.80;99.90
30628;DHT22;17394;50.890;4.724;2022-08-19T11:04:39;24.80;99.90
30628;DHT22;17394;50.890;4.724;2022-08-19T11:07:07;25.10;99.90
30628;DHT22;17394;50.890;4.724;2022-08-19T11:09:41;25.20;99.90
30628;DHT22;17394;50.890;4.724;2022-08-19T11:12:16;25.10;99.90
30628;DHT22;17394;50.890;4.724;2022-08-19T11:14:42;25.00;99.90
30628;DHT22;17394;50.890;4.724;2022-08-19T11:17:09;24.80;99.90
30628;DHT22;17394;50.890;4.724;2022-08-19T11:19:37;24.70;99.90
30628;DHT22;17394;50.890;4.724;2022-08-19T11:22:03;24.60;99.90
30628;DHT22;17394;50.890;4.724;2022-08-19T11:24:30;24.60;99.90
30628;DHT22;17394;50.890;4.724;2022-08-19T11:27:04;24.70;99.90
30628;DHT22;17394;50.890;4.724;2022-08-19T11:29:39;24.60;99.90
30628;DHT22;17394;50.890;4.724;2022-08-19T11:32:10;24.50;99.90
30628;DHT22;17394;50.890;4.724;2022-08-19T11:34:37;24.50;99.90
30628;DHT22;17394;50.890;4.724;2022-08-19T11:37:04;24.50;99.90
30628;DHT22;17394;50.890;4.724;2022-08-19T11:39:34;24.40;99.90
30628;DHT22;17394;50.890;4.724;2022-08-19T11:42:05;24.30;99.90
30628;DHT22;17394;50.890;4.724;2022-08-19T11:44:52;24.20;99.90
30628;DHT22;17394;50.890;4.724;2022-08-19T11:47:29;24.20;99.90
30628;DHT22;17394;50.890;4.724;2022-08-19T11:49:56;24.20;99.90
30628;DHT22;17394;50.890;4.724;2022-08-19T11:52:22;24.20;99.90
30628;DHT22;17394;50.890;4.724;2022-08-19T11:54:54;24.30;99.90
30628;DHT22;17394;50.890;4.724;2022-08-19T11:57:20;24.20;99.90
30628;DHT22;17394;50.890;4.724;2022-08-19T11:59:52;24.10;99.90
30628;DHT22;17394;50.890;4.724;2022-08-19T12:02:19;24.00;99.90
30628;DHT22;17394;50.890;4.724;2022-08-19T12:04:51;23.90;99.90
30628;DHT22;17394;50.890;4.724;2022-08-19T12:07:18;23.90;99.90
30628;DHT22;17394;50.890;4.724;2022-08-19T12:09:44;23.90;99.90
30628;DHT22;17394;50.890;4.724;2022-08-19T12:12:11;23.90;99.90
30628;DHT22;17394;50.890;4.724;2022-08-19T12:14:37;23.90;99.90
30628;DHT22;17394;50.890;4.724;2022-08-19T12:17:04;24.00;99.90
30628;DHT22;17394;50.890;4.724;2022-08-19T12:19:35;24.10;99.90
30628;DHT22;17394;50.890;4.724;2022-08-19T12:22:01;24.00;99.90
30628;DHT22;17394;50.890;4.724;2022-08-19T12:24:32;24.00;99.90
30628;DHT22;17394;50.890;4.724;2022-08-19T12:26:59;23.90;99.90
30628;DHT22;17394;50.890;4.724;2022-08-19T12:29:28;23.90;99.90
30628;DHT22;17394;50.890;4.724;2022-08-19T12:31:55;23.90;99.90
30628;DHT22;17394;50.890;4.724;2022-08-19T12:34:32;24.10;99.90
30628;DHT22;17394;50.890;4.724;2022-08-19T12:37:03;24.20;99.90
30628;DHT22;17394;50.890;4.724;2022-08-19T12:39:38;24.40;99.90
30628;DHT22;17394;50.890;4.724;2022-08-19T12:42:04;24.60;99.90
30628;DHT22;17394;50.890;4.724;2022-08-19T12:44:31;24.80;99.90
30628;DHT22;17394;50.890;4.724;2022-08-19T12:46:59;25.20;99.90
30628;DHT22;17394;50.890;4.724;2022-08-19T12:49:28;25.50;99.90
30628;DHT22;17394;50.890;4.724;2022-08-19T12:51:55;25.60;99.90
30628;DHT22;17394;50.890;4.724;2022-08-19T12:54:21;25.80;99.90
30628;DHT22;17394;50.890;4.724;2022-08-19T12:56:47;26.00;99.90
30628;DHT22;17394;50.890;4.724;2022-08-19T12:59:13;26.00;99.90
30628;DHT22;17394;50.890;4.724;2022-08-19T13:01:41;26.10;99.90
30628;DHT22;17394;50.890;4.724;2022-08-19T13:04:07;25.90;99.90
30628;DHT22;17394;50.890;4.724;2022-08-19T13:06:34;25.90;99.90
30628;DHT22;17394;50.890;4.724;2022-08-19T13:09:00;25.80;99.90
30628;DHT22;17394;50.890;4.724;2022-08-19T13:11:26;26.00;99.90
30628;DHT22;17394;50.890;4.724;2022-08-19T13:13:53;26.10;99.90
30628;DHT22;17394;50.890;4.724;2022-08-19T13:16:21;26.40;99.90
30628;DHT22;17394;50.890;4.724;2022-08-19T13:18:48;26.80;99.90
30628;DHT22;17394;50.890;4.724;2022-08-19T13:21:17;27.20;99.90
30628;DHT22;17394;50.890;4.724;2022-08-19T13:23:46;27.40;99.90
30628;DHT22;17394;50.890;4.724;2022-08-19T13:26:13;27.60;99.90
30628;DHT22;17394;50.890;4.724;2022-08-19T13:28:41;27.50;99.90
30628;DHT22;17394;50.890;4.724;2022-08-19T13:31:32;27.70;99.90
30628;DHT22;17394;50.890;4.724;2022-08-19T13:34:27;27.50;99.90
30628;DHT22;17394;50.890;4.724;2022-08-19T13:36:53;27.30;99.90
30628;DHT22;17394;50.890;4.724;2022-08-19T13:39:20;27.30;99.90
30628;DHT22;17394;50.890;4.724;2022-08-19T13:41:46;27.30;99.90
30628;DHT22;17394;50.890;4.724;2022-08-19T13:44:15;27.10;99.90
30628;DHT22;17394;50.890;4.724;2022-08-19T13:46:46;27.00;99.90
30628;DHT22;17394;50.890;4.724;2022-08-19T13:49:14;26.90;99.90
30628;DHT22;17394;50.890;4.724;2022-08-19T13:51:42;26.80;99.90
30628;DHT22;17394;50.890;4.724;2022-08-19T13:54:10;26.70;99.90
30628;DHT22;17394;50.890;4.724;2022-08-19T13:56:43;26.70;99.90
30628;DHT22;17394;50.890;4.724;2022-08-19T13:59:11;26.90;99.90
30628;DHT22;17394;50.890;4.724;2022-08-19T14:01:39;27.10;99.90
30628;DHT22;17394;50.890;4.724;2022-08-19T14:04:21;27.20;99.90
30628;DHT22;17394;50.890;4.724;2022-08-19T14:06:47;27.20;99.90
30628;DHT22;17394;50.890;4.724;2022-08-19T14:09:14;27.30;99.90
30628;DHT22;17394;50.890;4.724;2022-08-19T14:11:40;27.20;99.90
30628;DHT22;17394;50.890;4.724;2022-08-19T14:14:06;27.10;99.90
30628;DHT22;17394;50.890;4.724;2022-08-19T14:16:32;26.80;99.90
30628;DHT22;17394;50.890;4.724;2022-08-19T14:18:58;26.70;99.90
30628;DHT22;17394;50.890;4.724;2022-08-19T14:21:25;26.70;99.90
30628;DHT22;17394;50.890;4.724;2022-08-19T14:23:53;26.80;99.90
30628;DHT22;17394;50.890;4.724;2022-08-19T14:26:21;26.70;99.90
30628;DHT22;17394;50.890;4.724;2022-08-19T14:28:47;26.50;99.90
30628;DHT22;17394;50.890;4.724;2022-08-19T14:31:18;26.60;99.90
30628;DHT22;17394;50.890;4.724;2022-08-19T14:33:47;26.70;99.90
30628;DHT22;17394;50.890;4.724;2022-08-19T14:36:13;26.70;99.90
30628;DHT22;17394;50.890;4.724;2022-08-19T14:38:40;26.70;99.90
30628;DHT22;17394;50.890;4.724;2022-08-19T14:41:18;26.60;99.90
30628;DHT22;17394;50.890;4.724;2022-08-19T14:43:52;26.60;99.90
30628;DHT22;17394;50.890;4.724;2022-08-19T14:46:26;26.60;99.90
30628;DHT22;17394;50.890;4.724;2022-08-19T14:48:54;26.60;99.90
30628;DHT22;17394;50.890;4.724;2022-08-19T14:51:25;26.60;99.90
30628;DHT22;17394;50.890;4.724;2022-08-19T14:53:53;26.50;99.90
30628;DHT22;17394;50.890;4.724;2022-08-19T14:56:25;26.30;99.90
30628;DHT22;17394;50.890;4.724;2022-08-19T14:58:53;26.30;99.90
30628;DHT22;17394;50.890;4.724;2022-08-19T15:01:22;26.10;99.90
30628;DHT22;17394;50.890;4.724;2022-08-19T15:03:50;25.90;99.90
30628;DHT22;17394;50.890;4.724;2022-08-19T15:06:19;25.60;99.90
30628;DHT22;17394;50.890;4.724;2022-08-19T15:08:45;25.40;99.90
30628;DHT22;17394;50.890;4.724;2022-08-19T15:11:18;25.20;99.90
30628;DHT22;17394;50.890;4.724;2022-08-19T15:13:48;24.90;99.90
30628;DHT22;17394;50.890;4.724;2022-08-19T15:16:15;24.70;99.90
30628;DHT22;17394;50.890;4.724;2022-08-19T15:18:43;24.40;99.90
30628;DHT22;17394;50.890;4.724;2022-08-19T15:21:17;24.10;99.90
30628;DHT22;17394;50.890;4.724;2022-08-19T15:23:45;23.70;99.90
30628;DHT22;17394;50.890;4.724;2022-08-19T15:26:12;23.30;99.90
30628;DHT22;17394;50.890;4.724;2022-08-19T15:28:39;23.20;99.90
30628;DHT22;17394;50.890;4.724;2022-08-19T15:31:05;23.10;99.90
30628;DHT22;17394;50.890;4.724;2022-08-19T15:33:34;23.10;99.90
30628;DHT22;17394;50.890;4.724;2022-08-19T15:36:06;23.10;99.90
30628;DHT22;17394;50.890;4.724;2022-08-19T15:38:34;23.10;99.90
30628;DHT22;17394;50.890;4.724;2022-08-19T15:41:03;23.00;99.90
30628;DHT22;17394;50.890;4.724;2022-08-19T15:44:02;22.90;99.90
30628;DHT22;17394;50.890;4.724;2022-08-19T15:46:32;22.80;99.90
30628;DHT22;17394;50.890;4.724;2022-08-19T15:49:18;22.70;99.90
30628;DHT22;17394;50.890;4.724;2022-08-19T15:51:48;22.60;99.90
30628;DHT22;17394;50.890;4.724;2022-08-19T15:54:20;22.50;99.90
30628;DHT22;17394;50.890;4.724;2022-08-19T15:56:49;22.40;99.90
30628;DHT22;17394;50.890;4.724;2022-08-19T15:59:37;22.40;99.90
30628;DHT22;17394;50.890;4.724;2022-08-19T16:02:26;22.60;99.90
30628;DHT22;17394;50.890;4.724;2022-08-19T16:05:16;22.90;99.90
30628;DHT22;17394;50.890;4.724;2022-08-19T16:08:20;23.40;99.90
30628;DHT22;17394;50.890;4.724;2022-08-19T16:10:46;23.60;99.90
30628;DHT22;17394;50.890;4.724;2022-08-19T16:13:31;23.70;99.90
30628;DHT22;17394;50.890;4.724;2022-08-19T16:15:57;23.90;99.90
30628;DHT22;17394;50.890;4.724;2022-08-19T16:18:23;24.00;99.90
30628;DHT22;17394;50.890;4.724;2022-08-19T16:20:50;24.00;99.90
30628;DHT22;17394;50.890;4.724;2022-08-19T16:23:35;23.90;99.90
30628;DHT22;17394;50.890;4.724;2022-08-19T16:26:01;23.80;99.90
30628;DHT22;17394;50.890;4.724;2022-08-19T16:28:27;23.70;99.90
30628;DHT22;17394;50.890;4.724;2022-08-19T16:31:14;23.60;99.90
30628;DHT22;17394;50.890;4.724;2022-08-19T16:33:40;23.50;99.90
30628;DHT22;17394;50.890;4.724;2022-08-19T16:36:07;23.50;99.90
30628;DHT22;17394;50.890;4.724;2022-08-19T16:38:34;23.40;99.90
30628;DHT22;17394;50.890;4.724;2022-08-19T16:41:20;23.40;99.90
30628;DHT22;17394;50.890;4.724;2022-08-19T16:43:47;23.30;99.90
30628;DHT22;17394;50.890;4.724;2022-08-19T16:46:22;23.20;99.90
30628;DHT22;17394;50.890;4.724;2022-08-19T16:48:49;23.10;99.90
30628;DHT22;17394;50.890;4.724;2022-08-19T16:51:34;23.10;99.90
30628;DHT22;17394;50.890;4.724;2022-08-19T16:54:01;23.10;99.90
30628;DHT22;17394;50.890;4.724;2022-08-19T16:56:28;23.20;99.90
30628;DHT22;17394;50.890;4.724;2022-08-19T16:59:13;23.10;99.90
30628;DHT22;17394;50.890;4.724;2022-08-19T17:01:40;23.10;99.90
30628;DHT22;17394;50.890;4.724;2022-08-19T17:04:07;23.10;99.90
30628;DHT22;17394;50.890;4.724;2022-08-19T17:06:35;23.10;99.90
30628;DHT22;17394;50.890;4.724;2022-08-19T17:09:06;23.10;99.90
30628;DHT22;17394;50.890;4.724;2022-08-19T17:11:34;23.10;99.90
30628;DHT22;17394;50.890;4.724;2022-08-19T17:14:19;23.10;99.90
30628;DHT22;17394;50.890;4.724;2022-08-19T17:16:45;23.10;99.90
30628;DHT22;17394;50.890;4.724;2022-08-19T17:19:12;23.10;99.90
30628;DHT22;17394;50.890;4.724;2022-08-19T17:21:38;23.10;99.90
30628;DHT22;17394;50.890;4.724;2022-08-19T17:24:06;23.10;99.90
30628;DHT22;17394;50.890;4.724;2022-08-19T17:26:52;23.10;99.90
30628;DHT22;17394;50.890;4.724;2022-08-19T17:29:18;23.10;99.90
30628;DHT22;17394;50.890;4.724;2022-08-19T17:31:44;23.00;99.90
30628;DHT22;17394;50.890;4.724;2022-08-19T17:34:29;23.00;99.90
30628;DHT22;17394;50.890;4.724;2022-08-19T17:36:55;22.90;99.90
30628;DHT22;17394;50.890;4.724;2022-08-19T17:39:21;22.90;99.90
30628;DHT22;17394;50.890;4.724;2022-08-19T17:42:06;22.90;99.90
30628;DHT22;17394;50.890;4.724;2022-08-19T17:44:32;22.80;99.90
30628;DHT22;17394;50.890;4.724;2022-08-19T17:47:01;22.70;99.90
30628;DHT22;17394;50.890;4.724;2022-08-19T17:49:29;22.70;99.90
30628;DHT22;17394;50.890;4.724;2022-08-19T17:51:55;22.60;99.90
30628;DHT22;17394;50.890;4.724;2022-08-19T17:54:40;22.60;99.90
30628;DHT22;17394;50.890;4.724;2022-08-19T17:57:06;22.50;99.90
30628;DHT22;17394;50.890;4.724;2022-08-19T17:59:33;22.50;99.90
30628;DHT22;17394;50.890;4.724;2022-08-19T18:01:59;22.40;99.90
30628;DHT22;17394;50.890;4.724;2022-08-19T18:04:44;22.30;99.90
30628;DHT22;17394;50.890;4.724;2022-08-19T18:07:10;22.20;99.90
30628;DHT22;17394;50.890;4.724;2022-08-19T18:09:39;22.10;99.90
30628;DHT22;17394;50.890;4.724;2022-08-19T18:12:11;22.10;99.90
30628;DHT22;17394;50.890;4.724;2022-08-19T18:14:57;22.00;99.90
30628;DHT22;17394;50.890;4.724;2022-08-19T18:17:23;22.00;99.90
30628;DHT22;17394;50.890;4.724;2022-08-19T18:19:51;21.90;99.90
30628;DHT22;17394;50.890;4.724;2022-08-19T18:25:25;21.70;99.90
30628;DHT22;17394;50.890;4.724;2022-08-19T18:27:58;21.60;99.90
30628;DHT22;17394;50.890;4.724;2022-08-19T18:30:28;21.40;99.90
30628;DHT22;17394;50.890;4.724;2022-08-19T18:33:14;21.30;99.90
30628;DHT22;17394;50.890;4.724;2022-08-19T18:35:45;21.20;99.90
30628;DHT22;17394;50.890;4.724;2022-08-19T18:38:15;21.10;99.90
30628;DHT22;17394;50.890;4.724;2022-08-19T18:41:05;21.10;99.90
30628;DHT22;17394;50.890;4.724;2022-08-19T18:43:50;21.00;99.90
30628;DHT22;17394;50.890;4.724;2022-08-19T18:46:35;21.00;99.90
30628;DHT22;17394;50.890;4.724;2022-08-19T18:49:38;20.90;99.90
30628;DHT22;17394;50.890;4.724;2022-08-19T18:52:05;20.80;99.90
30628;DHT22;17394;50.890;4.724;2022-08-19T18:54:31;20.70;99.90
30628;DHT22;17394;50.890;4.724;2022-08-19T18:57:21;20.70;99.90
30628;DHT22;17394;50.890;4.724;2022-08-19T18:59:49;20.70;99.90
30628;DHT22;17394;50.890;4.724;2022-08-19T19:02:16;20.70;99.90
30628;DHT22;17394;50.890;4.724;2022-08-19T19:05:04;20.60;99.90
30628;DHT22;17394;50.890;4.724;2022-08-19T19:07:30;20.70;99.90
30628;DHT22;17394;50.890;4.724;2022-08-19T19:09:56;20.60;99.90
30628;DHT22;17394;50.890;4.724;2022-08-19T19:12:22;20.60;99.90
30628;DHT22;17394;50.890;4.724;2022-08-19T19:15:10;20.60;99.90
30628;DHT22;17394;50.890;4.724;2022-08-19T19:17:37;20.60;99.90
30628;DHT22;17394;50.890;4.724;2022-08-19T19:20:07;20.60;99.90
30628;DHT22;17394;50.890;4.724;2022-08-19T19:22:52;20.60;99.90
30628;DHT22;17394;50.890;4.724;2022-08-19T19:25:18;20.60;99.90
30628;DHT22;17394;50.890;4.724;2022-08-19T19:27:45;20.60;99.90
30628;DHT22;17394;50.890;4.724;2022-08-19T19:30:29;20.50;99.90
30628;DHT22;17394;50.890;4.724;2022-08-19T19:32:57;20.50;99.90
30628;DHT22;17394;50.890;4.724;2022-08-19T19:35:25;20.50;99.90
30628;DHT22;17394;50.890;4.724;2022-08-19T19:37:51;20.60;99.90
30628;DHT22;17394;50.890;4.724;2022-08-19T19:40:19;20.60;99.90
30628;DHT22;17394;50.890;4.724;2022-08-19T19:43:05;20.60;99.90
30628;DHT22;17394;50.890;4.724;2022-08-19T19:45:31;20.60;99.90
30628;DHT22;17394;50.890;4.724;2022-08-19T19:47:58;20.60;99.90
30628;DHT22;17394;50.890;4.724;2022-08-19T19:50:44;20.60;99.90
30628;DHT22;17394;50.890;4.724;2022-08-19T19:53:12;20.50;99.90
30628;DHT22;17394;50.890;4.724;2022-08-19T19:55:42;20.50;99.90
30628;DHT22;17394;50.890;4.724;2022-08-19T19:58:08;20.50;99.90
30628;DHT22;17394;50.890;4.724;2022-08-19T20:00:54;20.50;99.90
30628;DHT22;17394;50.890;4.724;2022-08-19T20:03:20;20.50;99.90
30628;DHT22;17394;50.890;4.724;2022-08-19T20:05:47;20.50;99.90
30628;DHT22;17394;50.890;4.724;2022-08-19T20:08:14;20.40;99.90
30628;DHT22;17394;50.890;4.724;2022-08-19T20:11:42;20.40;99.90
30628;DHT22;17394;50.890;4.724;2022-08-19T20:14:17;20.40;99.90
30628;DHT22;17394;50.890;4.724;2022-08-19T20:16:45;20.30;99.90
30628;DHT22;17394;50.890;4.724;2022-08-19T20:19:32;20.30;99.90
30628;DHT22;17394;50.890;4.724;2022-08-19T20:22:04;20.30;99.90
30628;DHT22;17394;50.890;4.724;2022-08-19T20:24:34;20.30;99.90
30628;DHT22;17394;50.890;4.724;2022-08-19T20:27:03;20.30;99.90
30628;DHT22;17394;50.890;4.724;2022-08-19T20:29:48;20.30;99.90
30628;DHT22;17394;50.890;4.724;2022-08-19T20:32:14;20.30;99.90
30628;DHT22;17394;50.890;4.724;2022-08-19T20:34:41;20.30;99.90
30628;DHT22;17394;50.890;4.724;2022-08-19T20:37:09;20.30;99.90
30628;DHT22;17394;50.890;4.724;2022-08-19T20:39:55;20.30;99.90
30628;DHT22;17394;50.890;4.724;2022-08-19T20:42:22;20.30;99.90
30628;DHT22;17394;50.890;4.724;2022-08-19T20:44:49;20.30;99.90
30628;DHT22;17394;50.890;4.724;2022-08-19T20:47:17;20.30;99.90
30628;DHT22;17394;50.890;4.724;2022-08-19T20:49:43;20.30;99.90
30628;DHT22;17394;50.890;4.724;2022-08-19T20:52:09;20.30;99.90
30628;DHT22;17394;50.890;4.724;2022-08-19T20:54:35;20.30;99.90
30628;DHT22;17394;50.890;4.724;2022-08-19T20:57:01;20.30;99.90
30628;DHT22;17394;50.890;4.724;2022-08-19T20:59:31;20.20;99.90
30628;DHT22;17394;50.890;4.724;2022-08-19T21:01:57;20.20;99.90
30628;DHT22;17394;50.890;4.724;2022-08-19T21:04:23;20.20;99.90
30628;DHT22;17394;50.890;4.724;2022-08-19T21:06:49;20.20;99.90
30628;DHT22;17394;50.890;4.724;2022-08-19T21:09:34;20.20;99.90
30628;DHT22;17394;50.890;4.724;2022-08-19T21:12:05;20.10;99.90
30628;DHT22;17394;50.890;4.724;2022-08-19T21:14:32;20.10;99.90
30628;DHT22;17394;50.890;4.724;2022-08-19T21:16:58;20.10;99.90
30628;DHT22;17394;50.890;4.724;2022-08-19T21:19:43;20.10;99.90
30628;DHT22;17394;50.890;4.724;2022-08-19T21:22:09;20.00;99.90
30628;DHT22;17394;50.890;4.724;2022-08-19T21:24:36;20.00;99.90
30628;DHT22;17394;50.890;4.724;2022-08-19T21:27:03;20.00;99.90
30628;DHT22;17394;50.890;4.724;2022-08-19T21:29:32;19.90;99.90
30628;DHT22;17394;50.890;4.724;2022-08-19T21:32:03;19.90;99.90
30628;DHT22;17394;50.890;4.724;2022-08-19T21:34:29;19.90;99.90
30628;DHT22;17394;50.890;4.724;2022-08-19T21:36:55;19.90;99.90
30628;DHT22;17394;50.890;4.724;2022-08-19T21:39:21;19.90;99.90
30628;DHT22;17394;50.890;4.724;2022-08-19T21:41:47;19.90;99.90
30628;DHT22;17394;50.890;4.724;2022-08-19T21:44:13;19.90;99.90
30628;DHT22;17394;50.890;4.724;2022-08-19T21:46:58;19.90;99.90
30628;DHT22;17394;50.890;4.724;2022-08-19T21:49:24;19.90;99.90
30628;DHT22;17394;50.890;4.724;2022-08-19T21:51:51;19.90;99.90
30628;DHT22;17394;50.890;4.724;2022-08-19T21:54:17;19.90;99.90
30628;DHT22;17394;50.890;4.724;2022-08-19T21:56:43;19.80;99.90
30628;DHT22;17394;50.890;4.724;2022-08-19T21:59:28;19.80;99.90
30628;DHT22;17394;50.890;4.724;2022-08-19T22:01:54;19.80;99.90
30628;DHT22;17394;50.890;4.724;2022-08-19T22:04:20;19.80;99.90
30628;DHT22;17394;50.890;4.724;2022-08-19T22:06:46;19.80;99.90
30628;DHT22;17394;50.890;4.724;2022-08-19T22:09:31;19.80;99.90
30628;DHT22;17394;50.890;4.724;2022-08-19T22:11:57;19.80;99.90
30628;DHT22;17394;50.890;4.724;2022-08-19T22:14:23;19.80;99.90
30628;DHT22;17394;50.890;4.724;2022-08-19T22:16:49;19.80;99.90
30628;DHT22;17394;50.890;4.724;2022-08-19T22:19:19;19.80;99.90
30628;DHT22;17394;50.890;4.724;2022-08-19T22:21:45;19.80;99.90
30628;DHT22;17394;50.890;4.724;2022-08-19T22:24:12;19.80;99.90
30628;DHT22;17394;50.890;4.724;2022-08-19T22:26:56;19.80;99.90
30628;DHT22;17394;50.890;4.724;2022-08-19T22:29:23;19.80;99.90
30628;DHT22;17394;50.890;4.724;2022-08-19T22:31:49;19.80;99.90
30628;DHT22;17394;50.890;4.724;2022-08-19T22:34:34;19.80;99.90
30628;DHT22;17394;50.890;4.724;2022-08-19T22:37:00;19.80;99.90
30628;DHT22;17394;50.890;4.724;2022-08-19T22:39:26;19.80;99.90
30628;DHT22;17394;50.890;4.724;2022-08-19T22:41:55;19.80;99.90
30628;DHT22;17394;50.890;4.724;2022-08-19T22:44:21;19.80;99.90
30628;DHT22;17394;50.890;4.724;2022-08-19T22:46:49;19.80;99.90
30628;DHT22;17394;50.890;4.724;2022-08-19T22:49:15;19.70;99.90